Hauptseite
METAR-TAF:

METAR-TAF

Flughäfen :

Flughafen Sønderborg

Sønderborg, Dänemark

Breite: 54-58N, Länge: 009-47E, Höhe: 7 m

Beobachtung

Neuester Wetterbericht von vor 32 Minuten, um 18:50 UTC
Wind 5 kt aus Süd/Südwest, variierte zwischen Süd und West
Temperatur 19°C
Luftfeuchtigkeit 78%
Luftdruck 1013 hPa
Sichtweite 10 km oder mehr
keine Wolken unter 1500 m und keine Kumulonimbus oder Gewitterwolken

METAR: EKSB 191850Z 21005KT 180V260 CAVOK 19/15 Q1013

Zeit: 21:22 (19:22 UTC)

Prognose

Neuester Wetterbericht von vor 1 Stunde und 32 Minuten, um 17:50 UTC
Gültige Prognose vom 19 um 18 UTC bis 19 um 22 UTC
Wind 10 kt aus Süd/Südwest
Sichtweite 10 km oder mehr
Aufgelockert bewölkt in der Höhe von 2000 ft

TAF: EKSB 191750Z 1918/1922 20010KT 9999 SCT020

Wetterbeobachtungen und Prognosen von mehr als 4000 Flughäfen (METAR und TAF Bericht).

Die verfügbaren Stationen werden durch gelbe und rote Markierungen auf der Karte dargestellt.

Führen Sie die Maus auf sie, um den Namen der Station zu sehen.

Darauf klicken, um die Beobachtung von Wetterbeobachtungen und Prognosen zu sehen.

Um die Karte zu ändern : klicken Sie auf den grünen Tasten mit einem schwarzen Kreuz Zum Vergrößern, auf den grünen Button mit einem Gedankenstrich zu verkleinern, oder auf die grünen Pfeile für benachbarte Karten.


METAR-TAF: